Time;durP1;ratioP1;P1;durP2;ratioP2;P2;SDS_P1;SDS_P2;PMS_P1;PMS_P2;Temp;Humidity;BMP_temperature;BMP_pressure;BME280_temperature;BME280_humidity;BME280_pressure;Samples;Min_cycle;Max_cycle;Signal;HPM_P1;HPM_P2
2022/07/01 00:02:21;;;;;;;2.78;0.80;;;24.50;71.50;;;23.50;51.78;101513.41;5034061;28;20037;-56
2022/07/01 00:04:46;;;;;;;1.02;0.70;;;24.60;85.90;;;23.50;51.85;101515.34;5034180;28;20041;-59
2022/07/01 00:07:12;;;;;;;1.90;0.75;;;24.60;85.50;;;23.49;51.81;101517.25;5034514;28;20498;-59
2022/07/01 00:09:38;;;;;;;1.17;0.77;;;24.70;86.00;;;23.48;51.81;101503.63;5034483;28;20091;-60
2022/07/01 00:12:05;;;;;;;0.60;0.50;;;24.70;85.80;;;23.48;51.64;101500.84;5034150;28;20079;-60
2022/07/01 00:14:31;;;;;;;1.35;0.77;;;24.60;86.10;;;23.47;51.86;101499.97;5034087;28;20095;-60
2022/07/01 00:16:57;;;;;;;0.77;0.77;;;24.80;86.50;;;23.47;51.65;101499.13;5034110;28;20033;-60
2022/07/01 00:19:24;;;;;;;3.08;0.85;;;24.80;86.50;;;23.46;51.81;101503.00;5034072;28;20041;-60
2022/07/01 00:21:51;;;;;;;1.08;0.98;;;24.80;86.70;;;23.45;51.68;101504.06;5034098;28;20424;-56
2022/07/01 00:24:17;;;;;;;0.95;0.82;;;24.70;69.40;;;23.44;51.71;101511.56;5033963;28;20049;-57
2022/07/01 00:26:43;;;;;;;0.80;0.80;;;24.70;67.70;;;23.43;51.65;101523.72;5033913;28;20033;-57
2022/07/01 00:29:09;;;;;;;1.30;1.00;;;;;;;23.42;51.68;101523.97;5033848;28;20037;-56
2022/07/01 00:31:35;;;;;;;4.43;0.73;;;24.60;72.00;;;23.40;51.71;101515.84;5033728;28;20042;-55
2022/07/01 00:34:02;;;;;;;1.10;0.80;;;24.70;86.70;;;23.40;51.96;101523.38;5033760;28;20105;-56
2022/07/01 00:36:28;;;;;;;0.73;0.73;;;24.70;86.30;;;23.40;51.86;101515.03;5033764;28;20045;-56
2022/07/01 00:38:54;;;;;;;1.65;0.80;;;24.80;86.00;;;23.39;51.66;101511.41;5033723;28;20034;-56
2022/07/01 00:41:19;;;;;;;2.25;0.70;;;24.90;73.60;;;23.38;51.70;101503.25;5033733;28;20040;-59
2022/07/01 00:43:45;;;;;;;0.93;0.70;;;24.70;86.00;;;23.38;51.71;101503.25;5033518;28;20116;-59
2022/07/01 00:46:12;;;;;;;0.80;0.80;;;24.60;85.70;;;23.37;51.79;101509.91;5033526;28;20033;-59
2022/07/01 00:48:38;;;;;;;1.30;0.75;;;24.90;85.80;;;23.37;51.86;101507.13;5032307;28;20092;-59
2022/07/01 00:51:04;;;;;;;0.73;0.65;;;24.90;85.60;;;23.34;51.71;101502.03;5033425;28;20057;-59
2022/07/01 00:53:31;;;;;;;0.88;0.70;;;24.70;86.00;;;23.33;51.78;101498.41;5033413;28;20034;-59
2022/07/01 00:55:57;;;;;;;2.05;0.90;;;;;;;23.33;51.67;101490.09;5033369;28;20041;-59
2022/07/01 00:58:28;;;;;;;1.40;0.90;;;24.50;85.80;;;23.32;51.71;101495.84;5033381;28;20126;-60
2022/07/01 01:00:55;;;;;;;1.33;0.93;;;;;;;23.31;51.74;101491.41;5033638;28;20029;-60
2022/07/01 01:03:21;;;;;;;1.88;0.82;;;24.70;84.60;;;23.29;51.95;101486.06;5033163;28;20029;-59
2022/07/01 01:05:47;;;;;;;0.98;0.90;;;24.60;67.60;;;23.29;51.93;101491.59;5033000;28;20046;-59
2022/07/01 01:08:13;;;;;;;1.65;1.05;;;;;;;23.28;51.78;101486.31;5033146;28;20399;-60
2022/07/01 01:10:39;;;;;;;1.45;0.95;;;24.90;55.50;;;23.27;51.83;101490.16;5033315;28;20095;-60
2022/07/01 01:13:05;;;;;;;1.20;0.85;;;24.50;85.90;;;23.26;51.96;101494.84;5032833;28;20526;-60
2022/07/01 01:15:31;;;;;;;0.57;0.57;;;24.50;85.70;;;23.25;51.79;101494.00;5033010;28;20041;-59
2022/07/01 01:17:58;;;;;;;0.75;0.70;;;24.70;86.00;;;23.26;51.93;101489.28;5033067;28;20064;-56
2022/07/01 01:20:23;;;;;;;1.33;0.70;;;24.70;86.30;;;23.24;51.98;101492.31;5033173;28;20056;-57
2022/07/01 01:22:50;;;;;;;1.17;0.70;;;24.50;86.10;;;23.24;51.82;101491.47;5032954;28;20067;-56
2022/07/01 01:25:16;;;;;;;0.80;0.80;;;24.70;86.30;;;23.23;51.81;101496.16;5032776;28;20469;-57
2022/07/01 01:27:43;;;;;;;0.73;0.73;;;24.60;57.90;;;23.22;51.74;101486.13;5032761;28;20037;-56
2022/07/01 01:30:12;;;;;;;1.42;0.85;;;24.40;86.20;;;23.21;52.03;101487.22;5032738;28;20037;-57
2022/07/01 01:32:40;;;;;;;0.75;0.63;;;24.70;86.10;;;23.21;51.97;101497.47;5032951;28;20089;-56
2022/07/01 01:35:07;;;;;;;1.58;0.70;;;24.70;86.00;;;23.20;51.77;101515.19;5032700;28;20037;-60
2022/07/01 01:37:33;;;;;;;0.80;0.77;;;24.60;85.80;;;23.19;51.92;101521.84;5032723;28;20407;-60
2022/07/01 01:39:59;;;;;;;0.90;0.80;;;24.60;86.00;;;23.17;52.06;101529.53;5032617;28;20041;-60
2022/07/01 01:42:25;;;;;;;1.02;0.90;;;24.10;85.60;;;23.18;51.86;101539.56;5032759;28;20064;-59
2022/07/01 01:44:50;;;;;;;0.82;0.75;;;24.70;86.00;;;23.17;51.99;101537.84;5032405;28;20033;-60
2022/07/01 01:47:16;;;;;;;1.10;1.05;;;24.70;86.10;;;23.17;52.05;101535.06;5032708;28;20041;-60
2022/07/01 01:49:42;;;;;;;1.27;0.90;;;24.60;85.90;;;23.15;51.95;101532.53;5032371;28;20040;-60
2022/07/01 01:52:08;;;;;;;1.23;1.13;;;24.30;86.10;;;23.14;51.93;101528.06;5032382;28;20041;-60
2022/07/01 01:54:36;;;;;;;0.98;0.70;;;24.60;86.40;;;23.14;51.99;101518.88;5032399;28;20042;-57
2022/07/01 01:57:05;;;;;;;3.50;1.02;;;24.40;86.40;;;23.12;51.99;101513.56;5032569;28;20056;-57
2022/07/01 01:59:30;;;;;;;1.10;1.00;;;24.50;86.70;;;23.11;51.80;101511.88;5032297;28;20037;-56
2022/07/01 02:01:57;;;;;;;0.90;0.90;;;;;;;23.12;52.03;101523.81;5032132;28;20084;-57
2022/07/01 02:04:23;;;;;;;1.00;0.77;;;24.60;55.60;;;23.11;51.74;101530.44;5031948;28;20454;-56
2022/07/01 02:06:50;;;;;;;1.63;0.90;;;24.30;74.80;;;23.10;52.06;101542.63;5032234;28;20422;-57
2022/07/01 02:09:16;;;;;;;2.05;0.93;;;24.60;73.00;;;23.08;51.78;101542.84;5030996;28;20033;-57
2022/07/01 02:11:42;;;;;;;0.93;0.85;;;24.40;86.40;;;23.09;51.95;101546.47;5032240;28;20041;-60
2022/07/01 02:14:08;;;;;;;0.98;0.90;;;24.40;57.40;;;23.09;51.82;101554.81;5032275;28;20521;-60
2022/07/01 02:16:33;;;;;;;1.65;0.80;;;24.50;86.50;;;23.08;51.87;101547.53;5032069;28;20033;-60
2022/07/01 02:18:59;;;;;;;1.52;1.05;;;24.50;86.60;;;23.06;52.01;101547.78;5032103;28;20071;-60
2022/07/01 02:21:25;;;;;;;1.67;1.20;;;24.20;86.50;;;23.05;52.00;101546.06;5032090;28;20030;-60
2022/07/01 02:23:52;;;;;;;1.23;1.00;;;24.50;84.50;;;23.04;51.99;101536.03;5033082;28;20168;-59
2022/07/01 02:26:18;;;;;;;1.35;1.10;;;24.00;86.50;;;23.04;51.90;101543.53;5036195;28;20041;-60
2022/07/01 02:28:44;;;;;;;1.15;0.93;;;24.20;86.40;;;23.02;51.95;101538.19;5036141;28;20033;-60
2022/07/01 02:31:10;;;;;;;1.90;0.95;;;24.60;86.40;;;23.04;52.08;101535.22;5036113;28;20041;-60
2022/07/01 02:33:36;;;;;;;1.38;1.27;;;;;;;23.01;51.87;101542.03;5036009;28;20032;-60
2022/07/01 02:36:02;;;;;;;1.20;1.10;;;24.50;86.00;;;23.02;52.09;101554.84;5036209;28;20056;-60
2022/07/01 02:38:28;;;;;;;1.75;1.13;;;24.30;86.30;;;23.01;51.82;101544.00;5035914;28;20116;-60
2022/07/01 02:40:54;;;;;;;1.20;0.95;;;24.50;86.60;;;23.00;52.16;101545.91;5035843;28;20112;-60
2022/07/01 02:43:19;;;;;;;1.65;1.15;;;24.50;78.40;;;23.01;52.06;101541.22;5035811;28;20523;-60
2022/07/01 02:45:45;;;;;;;1.13;1.00;;;;;;;22.98;52.08;101536.13;5035758;28;20059;-60
2022/07/01 02:48:11;;;;;;;1.02;0.93;;;24.20;86.10;;;22.98;51.89;101538.91;5035702;28;20037;-60
2022/07/01 02:50:37;;;;;;;1.08;0.90;;;24.10;86.10;;;22.97;51.97;101540.81;5035991;28;20025;-56
2022/07/01 02:53:03;;;;;;;1.75;1.00;;;24.20;86.30;;;22.97;52.04;101542.75;5035638;28;20418;-56
2022/07/01 02:55:29;;;;;;;1.63;0.95;;;24.50;86.60;;;22.96;52.04;101554.91;5035565;28;20108;-56
2022/07/01 02:57:55;;;;;;;1.30;1.00;;;21.80;54.50;;;22.95;51.92;101548.53;5035616;28;20043;-55
2022/07/01 03:00:22;;;;;;;1.17;1.08;;;24.70;58.60;;;22.94;51.93;101559.84;5035828;28;20084;-56
2022/07/01 03:02:48;;;;;;;2.67;1.17;;;24.20;86.50;;;22.94;52.09;101569.03;5035437;28;20037;-56
2022/07/01 03:05:14;;;;;;;1.15;1.05;;;24.00;86.00;;;22.93;52.00;101564.53;5035310;28;20507;-56
2022/07/01 03:07:40;;;;;;;1.88;1.05;;;24.20;86.40;;;22.93;51.85;101558.13;5034322;28;20466;-57
2022/07/01 03:10:09;;;;;;;1.67;0.82;;;23.90;86.30;;;22.92;51.91;101546.22;5035429;28;20117;-56
2022/07/01 03:12:35;;;;;;;1.08;1.00;;;24.30;86.70;;;22.91;52.02;101538.09;5035558;28;20037;-57
2022/07/01 03:15:13;;;;;;;1.40;0.90;;;24.50;86.70;;;22.91;51.99;101543.66;5035223;28;20048;-56
2022/07/01 03:17:41;;;;;;;1.15;1.13;;;23.70;58.70;;;22.87;52.17;101537.69;5035246;28;20064;-56
2022/07/01 03:20:11;;;;;;;1.05;1.00;;;24.40;86.80;;;22.88;52.05;101541.31;5035174;28;20112;-56
2022/07/01 03:22:38;;;;;;;1.42;1.10;;;24.20;86.70;;;22.89;51.97;101543.03;5033844;28;20476;-56
2022/07/01 03:25:05;;;;;;;1.98;1.15;;;23.80;86.50;;;22.86;52.01;101551.81;5035042;28;20038;-60
2022/07/01 03:27:32;;;;;;;1.73;1.10;;;23.90;86.70;;;22.86;52.01;101555.44;5035093;28;20028;-55
2022/07/01 03:29:58;;;;;;;1.33;0.90;;;23.70;86.60;;;22.84;52.23;101565.88;5035012;28;20069;-56
2022/07/01 03:32:24;;;;;;;1.08;1.02;;;24.40;86.40;;;22.84;52.18;101554.78;5035235;28;20388;-56
2022/07/01 03:34:51;;;;;;;1.02;0.90;;;23.90;85.90;;;22.83;52.19;101555.88;5034817;28;20040;-56
2022/07/01 03:37:19;;;;;;;0.95;0.88;;;24.20;55.60;;;22.82;52.18;101558.88;5034948;28;20033;-56
2022/07/01 03:39:45;;;;;;;1.90;0.93;;;23.80;85.60;;;22.82;52.25;101564.41;5034766;28;20041;-55
2022/07/01 03:42:12;;;;;;;2.20;0.95;;;24.10;85.80;;;22.81;52.17;101557.16;5034778;28;20040;-56
2022/07/01 03:44:38;;;;;;;1.77;0.90;;;24.00;85.90;;;22.81;52.02;101571.03;5034657;28;20041;-60
2022/07/01 03:47:05;;;;;;;1.15;1.00;;;24.10;55.60;;;22.81;52.14;101571.03;5034719;28;20069;-60
2022/07/01 03:49:33;;;;;;;1.33;0.82;;;24.10;55.60;;;22.80;52.14;101580.44;5034565;28;20038;-60
2022/07/01 03:51:59;;;;;;;1.23;0.82;;;24.20;86.80;;;22.79;52.16;101589.84;5034595;28;20037;-59
2022/07/01 03:54:37;;;;;;;1.98;0.90;;;24.00;64.00;;;22.79;52.03;101585.16;5034509;28;20538;-59
2022/07/01 03:57:06;;;;;;;2.40;0.95;;;24.10;55.70;;;22.78;52.08;101580.66;5034527;28;20112;-60
2022/07/01 03:59:37;;;;;;;3.15;1.15;;;24.10;86.40;;;22.77;52.20;101590.06;5034678;28;20076;-60
2022/07/01 04:02:04;;;;;;;0.70;0.70;;;24.20;86.70;;;22.77;52.13;101589.22;5034621;28;20397;-59
2022/07/01 04:04:30;;;;;;;1.20;1.10;;;23.90;86.90;;;22.76;52.23;101587.50;5034185;28;20073;-59
2022/07/01 04:07:00;;;;;;;1.08;0.98;;;24.30;64.50;;;22.76;52.05;101598.59;5034325;28;20076;-59
2022/07/01 04:09:27;;;;;;;1.53;1.03;;;24.10;55.70;;;22.75;52.19;101594.13;5034312;28;20025;-60
2022/07/01 04:11:54;;;;;;;1.08;0.75;;;23.90;86.80;;;22.75;52.13;101597.75;5034213;28;20037;-59
2022/07/01 04:14:20;;;;;;;3.15;0.90;;;24.40;87.00;;;22.73;52.19;101607.38;5034182;28;20446;-60
2022/07/01 04:16:46;;;;;;;1.10;0.90;;;;;;;22.73;52.16;101585.19;5032957;28;20039;-59
2022/07/01 04:19:14;;;;;;;1.02;0.82;;;24.30;87.00;;;22.73;51.95;101582.41;5034398;28;20029;-59
2022/07/01 04:24:26;;;;;;;1.23;0.85;;;24.10;74.40;;;22.71;52.17;101609.53;5033991;28;20468;-56
2022/07/01 04:26:52;;;;;;;2.53;1.20;;;24.20;86.60;;;22.71;52.14;101615.94;5034238;28;20361;-56
2022/07/01 04:29:19;;;;;;;1.75;0.82;;;23.90;86.10;;;22.71;52.06;101617.84;5033869;28;20037;-56
2022/07/01 04:31:45;;;;;;;1.58;0.93;;;;;;;22.69;52.22;101618.06;5034090;28;20082;-55
2022/07/01 04:34:11;;;;;;;0.95;0.70;;;24.00;86.60;;;22.68;52.01;101621.94;5034030;28;20095;-56
2022/07/01 04:36:38;;;;;;;1.95;0.70;;;24.10;86.40;;;22.68;52.04;101611.69;5032517;28;20555;-56
2022/07/01 04:39:04;;;;;;;1.30;0.80;;;24.20;87.00;;;22.66;52.12;101621.28;5033799;28;20444;-59
2022/07/01 04:44:17;;;;;;;1.95;0.90;;;24.20;72.10;;;22.65;52.19;101601.03;5033581;28;20053;-59
2022/07/01 04:46:43;;;;;;;3.15;1.08;;;23.90;86.90;;;22.65;52.06;101602.97;5033007;28;20163;-59
2022/07/01 04:49:09;;;;;;;1.10;0.88;;;24.10;57.00;;;22.63;52.12;101610.59;5033458;28;20065;-60
2022/07/01 04:51:35;;;;;;;1.05;0.95;;;;;;;22.63;52.08;101614.22;5033451;28;20039;-60
2022/07/01 04:54:05;;;;;;;2.17;0.90;;;23.50;60.90;;;22.64;52.07;101623.41;5033462;28;20117;-60
2022/07/01 04:56:33;;;;;;;1.40;1.00;;;23.80;67.50;;;22.62;52.11;101629.19;5033403;28;20065;-59
2022/07/01 04:59:00;;;;;;;0.95;0.68;;;23.50;86.80;;;22.61;52.52;101633.03;5033452;28;20037;-56
2022/07/01 05:01:26;;;;;;;1.15;1.00;;;23.90;86.90;;;22.61;52.13;101641.34;5033238;28;20073;-56
2022/07/01 05:03:52;;;;;;;2.55;1.02;;;23.90;86.60;;;22.61;52.05;101644.13;5033043;28;20064;-56
2022/07/01 05:06:17;;;;;;;2.72;1.02;;;23.90;86.70;;;22.62;52.33;101633.88;5033209;28;20045;-56
2022/07/01 05:08:43;;;;;;;1.60;0.70;;;24.10;86.90;;;22.60;52.28;101633.22;5033390;28;20029;-55
2022/07/01 05:11:09;;;;;;;3.97;0.80;;;23.80;86.90;;;22.60;52.24;101638.78;5033075;28;20041;-56
2022/07/01 05:13:35;;;;;;;2.47;0.70;;;;;;;22.60;52.21;101631.31;5033022;28;20037;-56
2022/07/01 05:16:02;;;;;;;1.15;0.73;;;23.90;55.60;;;22.60;52.06;101638.78;5033078;28;20065;-56
2022/07/01 05:23:57;;;;;;;1.88;0.80;;;24.10;86.80;;;22.65;52.10;101625.16;5032805;28;20554;-58
2022/07/01 05:26:25;;;;;;;2.00;0.90;;;23.90;86.70;;;22.65;52.15;101636.25;5032825;28;20041;-58
2022/07/01 05:28:53;;;;;;;1.13;0.75;;;24.00;87.00;;;22.64;52.14;101640.94;5032753;28;20488;-56
2022/07/01 05:31:19;;;;;;;0.88;0.80;;;24.00;55.90;;;22.63;52.17;101641.09;5032720;28;20120;-56
2022/07/01 05:33:45;;;;;;;2.15;0.80;;;23.60;65.30;;;22.64;52.10;101637.25;5032663;28;20037;-58
2022/07/01 05:36:11;;;;;;;1.02;0.80;;;23.90;55.90;;;22.64;52.27;101638.16;5032785;28;20033;-58
2022/07/01 05:38:37;;;;;;;1.08;0.73;;;26.60;57.70;;;22.63;52.26;101639.19;5032581;28;20038;-58
2022/07/01 05:41:03;;;;;;;1.95;1.05;;;23.80;83.90;;;22.63;52.38;101639.19;5032586;28;20044;-58
2022/07/01 05:43:30;;;;;;;3.55;1.00;;;24.10;86.90;;;22.63;52.34;101639.19;5032554;28;20418;-57
2022/07/01 05:45:56;;;;;;;1.40;0.88;;;24.00;87.00;;;22.63;52.34;101632.78;5032471;28;20033;-58
2022/07/01 05:48:22;;;;;;;2.35;0.98;;;23.80;56.10;;;22.64;52.42;101637.25;5032709;28;20056;-58
2022/07/01 05:50:50;;;;;;;1.60;0.90;;;24.00;72.60;;;22.63;52.40;101638.31;5032462;28;20384;-58
2022/07/01 05:53:16;;;;;;;1.48;0.90;;;23.60;86.70;;;22.61;52.39;101635.78;5032494;28;20042;-59
2022/07/01 05:55:42;;;;;;;1.38;0.70;;;;;;;22.61;52.34;101635.78;5032351;28;20056;-58
2022/07/01 05:58:10;;;;;;;1.00;0.68;;;24.10;86.60;;;22.65;52.16;101627.91;5031852;28;20030;-59
2022/07/01 06:00:35;;;;;;;1.48;0.95;;;24.10;85.10;;;22.64;52.16;101635.38;5032211;28;20038;-59
2022/07/01 06:03:02;;;;;;;1.75;1.08;;;;;;;22.66;52.09;101633.22;5032149;28;20034;-59
2022/07/01 06:05:29;;;;;;;2.15;0.70;;;24.20;85.70;;;22.68;52.22;101638.56;5031950;28;20073;-58
2022/07/01 06:07:55;;;;;;;1.55;0.80;;;24.00;86.30;;;22.66;52.56;101638.78;5032191;28;20034;-58
2022/07/01 06:10:21;;;;;;;4.70;0.95;;;24.10;86.00;;;22.66;52.52;101636.00;5032164;28;20040;-57
2022/07/01 06:12:47;;;;;;;2.08;1.10;;;;;;;22.62;52.73;101640.28;5032209;28;20388;-56
2022/07/01 06:15:13;;;;;;;2.95;1.20;;;24.10;86.50;;;22.60;52.78;101639.63;5031980;28;20492;-57
2022/07/01 06:17:41;;;;;;;2.25;0.88;;;23.90;56.20;;;22.61;52.70;101637.72;5030970;28;20544;-57
2022/07/01 06:20:08;;;;;;;2.03;0.90;;;23.80;76.20;;;22.60;52.79;101639.63;5032179;28;20040;-56
2022/07/01 06:22:34;;;;;;;0.93;0.63;;;23.70;86.50;;;22.61;52.63;101640.47;5030931;28;20037;-55
2022/07/01 06:25:01;;;;;;;2.40;1.08;;;23.90;86.90;;;22.62;52.62;101645.81;5032088;28;20033;-57
2022/07/01 06:27:28;;;;;;;1.98;0.60;;;24.10;86.70;;;22.59;52.55;101643.50;5032164;28;20492;-58
2022/07/01 06:29:53;;;;;;;3.08;0.70;;;23.80;86.50;;;22.61;52.78;101646.88;5032158;28;20389;-59
2022/07/01 06:32:19;;;;;;;1.63;0.52;;;23.70;86.70;;;22.62;52.71;101634.72;5032114;28;20083;-59
2022/07/01 06:34:46;;;;;;;2.40;0.75;;;23.70;86.60;;;22.61;52.67;101638.56;5032120;28;20108;-59
2022/07/01 06:37:11;;;;;;;6.15;0.80;;;23.60;86.20;;;22.64;52.69;101635.38;5032467;28;20042;-58
2022/07/01 06:39:37;;;;;;;2.13;0.88;;;23.90;86.40;;;22.63;52.63;101628.09;5031928;28;20034;-59
2022/07/01 06:42:04;;;;;;;4.15;0.88;;;24.10;86.90;;;22.63;52.70;101630.00;5032045;28;20524;-59
2022/07/01 06:44:29;;;;;;;0.70;0.55;;;24.20;87.00;;;22.64;52.61;101627.06;5031838;28;20499;-59
2022/07/01 06:46:55;;;;;;;1.85;0.75;;;23.90;86.80;;;22.66;52.68;101629.59;5031943;28;20030;-58
2022/07/01 06:49:21;;;;;;;4.10;0.88;;;23.60;86.70;;;22.66;52.84;101624.06;5032024;28;20065;-58
2022/07/01 06:51:47;;;;;;;3.05;0.90;;;;;;;22.66;52.85;101627.69;5031941;28;20045;-59
2022/07/01 06:54:13;;;;;;;2.20;0.80;;;24.20;87.40;;;22.67;52.91;101634.09;5031779;28;20065;-59
2022/07/01 06:56:38;;;;;;;3.17;0.90;;;24.10;87.40;;;22.67;52.81;101634.94;5031721;28;20072;-59
2022/07/01 06:59:04;;;;;;;2.67;1.02;;;24.40;87.60;;;22.67;52.91;101645.19;5032014;28;20083;-59
2022/07/01 07:01:30;;;;;;;10.43;1.00;;;24.20;87.30;;;22.68;52.81;101633.88;5031793;28;20118;-59
2022/07/01 07:03:56;;;;;;;4.10;1.08;;;24.00;86.80;;;22.69;52.72;101637.47;5031404;28;20045;-59
2022/07/01 07:06:21;;;;;;;6.55;1.00;;;24.30;86.80;;;22.68;52.57;101644.97;5031854;28;20045;-58
2022/07/01 07:08:48;;;;;;;2.85;0.80;;;24.10;72.30;;;22.71;52.50;101645.59;5031663;28;20037;-57
2022/07/01 07:11:14;;;;;;;5.88;0.95;;;24.40;87.10;;;22.69;52.62;101640.25;5034723;28;20033;-59
2022/07/01 07:13:41;;;;;;;3.08;0.70;;;24.00;87.00;;;22.69;52.63;101643.88;5035284;28;20416;-59
2022/07/01 07:16:07;;;;;;;3.55;0.90;;;24.10;86.60;;;22.68;52.65;101647.75;5035211;28;20125;-57
2022/07/01 07:18:33;;;;;;;6.82;1.00;;;24.10;67.80;;;22.68;52.94;101644.97;5035131;28;20029;-57
2022/07/01 07:21:00;;;;;;;6.05;0.68;;;;;;;22.66;52.91;101651.78;5034907;28;20033;-56
2022/07/01 07:23:26;;;;;;;4.47;0.80;;;23.70;86.50;;;22.67;52.78;101662.69;5034906;28;20044;-59
2022/07/01 07:25:51;;;;;;;4.45;0.95;;;24.00;86.80;;;22.69;52.29;101659.66;5035270;28;20056;-60
2022/07/01 07:28:17;;;;;;;4.03;0.60;;;24.10;59.20;;;22.69;52.73;101660.53;5035403;28;20033;-57
2022/07/01 07:30:43;;;;;;;1.95;0.75;;;23.70;73.60;;;22.69;52.84;101662.44;5035167;28;20037;-59
2022/07/01 07:33:08;;;;;;;3.70;0.80;;;24.40;87.40;;;22.68;52.65;101669.94;5035040;28;20504;-57
2022/07/01 07:35:34;;;;;;;2.78;0.70;;;24.00;87.10;;;22.69;52.63;101665.22;5035042;28;20056;-57
2022/07/01 07:38:00;;;;;;;3.38;0.80;;;24.10;72.30;;;22.69;52.61;101663.28;5033727;28;20026;-57
2022/07/01 07:40:25;;;;;;;5.50;0.95;;;23.70;81.70;;;22.69;52.20;101665.22;5034787;28;20072;-56
2022/07/01 07:42:51;;;;;;;4.47;0.82;;;23.70;85.80;;;22.68;51.99;101671.84;5034839;28;20488;-57
2022/07/01 07:45:17;;;;;;;3.60;0.80;;;24.20;86.60;;;22.71;51.99;101682.50;5034803;28;20044;-56
2022/07/01 07:47:48;;;;;;;2.25;0.60;;;24.40;86.60;;;22.70;52.17;101675.25;5034690;28;20487;-55
2022/07/01 07:50:15;;;;;;;3.63;0.65;;;24.60;55.60;;;22.69;52.21;101674.38;5034734;28;20037;-58
2022/07/01 07:52:42;;;;;;;4.43;0.95;;;24.10;72.00;;;22.69;52.28;101673.53;5034792;28;20038;-58
2022/07/01 07:55:09;;;;;;;3.33;0.82;;;22.40;54.70;;;22.68;52.39;101680.19;5034653;28;20041;-58
2022/07/01 07:57:37;;;;;;;4.10;0.85;;;24.20;86.60;;;22.68;52.44;101675.47;5034691;28;20045;-58
2022/07/01 08:00:08;;;;;;;4.00;1.08;;;24.00;86.80;;;22.69;52.73;101684.63;5034625;28;20071;-58
2022/07/01 08:02:34;;;;;;;3.53;0.90;;;24.00;86.40;;;22.67;52.34;101682.09;5034818;28;20052;-58
2022/07/01 08:05:00;;;;;;;6.03;0.82;;;24.20;86.60;;;22.68;52.46;101675.47;5034093;28;20045;-58
2022/07/01 08:07:26;;;;;;;2.15;0.50;;;23.70;86.60;;;22.69;52.56;101682.72;5034405;28;20083;-56
2022/07/01 08:09:52;;;;;;;3.30;0.70;;;23.90;86.90;;;22.70;52.76;101680.78;5034390;28;20045;-58
2022/07/01 08:12:18;;;;;;;3.80;0.93;;;24.30;87.20;;;22.69;52.58;101693.81;5034595;28;20060;-58
2022/07/01 08:14:44;;;;;;;4.00;1.00;;;24.10;55.50;;;22.69;52.29;101695.72;5034231;28;20042;-57
2022/07/01 08:17:10;;;;;;;1.02;0.68;;;24.30;87.00;;;22.68;52.28;101694.03;5034299;28;20029;-56
2022/07/01 08:19:35;;;;;;;3.03;0.50;;;24.10;86.90;;;22.68;52.29;101699.59;5034290;28;20036;-59
2022/07/01 08:22:01;;;;;;;2.35;0.68;;;24.30;87.00;;;22.66;52.32;101699.78;5033230;28;20034;-60
2022/07/01 08:24:28;;;;;;;2.92;0.68;;;;;;;22.67;52.29;101698.72;5034062;28;20080;-59
2022/07/01 08:26:53;;;;;;;3.30;0.80;;;24.30;86.60;;;22.67;52.04;101704.28;5034102;28;20030;-58
2022/07/01 08:29:19;;;;;;;2.10;0.75;;;24.10;86.20;;;22.68;52.00;101702.38;5033992;28;20040;-59
2022/07/01 08:31:45;;;;;;;2.05;0.63;;;24.30;80.00;;;22.69;52.12;101713.22;5034212;28;20069;-58
2022/07/01 08:34:11;;;;;;;2.50;0.90;;;;;;;22.68;51.86;101708.75;5033876;28;20030;-59
2022/07/01 08:36:37;;;;;;;4.43;0.70;;;;;;;22.67;51.84;101707.06;5033780;28;20044;-59
2022/07/01 08:39:04;;;;;;;4.88;0.73;;;24.10;86.10;;;22.68;51.75;101713.47;5034079;28;20366;-59
2022/07/01 08:41:30;;;;;;;5.15;0.60;;;24.20;86.10;;;22.68;51.94;101717.09;5032811;28;20161;-57
2022/07/01 08:43:55;;;;;;;4.72;0.98;;;23.90;86.50;;;22.71;52.21;101726.03;5033676;28;20042;-60
2022/07/01 08:46:22;;;;;;;3.17;0.85;;;24.00;86.40;;;22.72;52.16;101724.97;5033643;28;20049;-59
2022/07/01 08:48:48;;;;;;;2.42;0.60;;;24.50;86.30;;;22.73;52.28;101729.41;5033509;28;20072;-59
2022/07/01 08:51:15;;;;;;;7.03;0.80;;;;;;;22.73;52.21;101724.72;5033587;28;20514;-60
2022/07/01 08:53:41;;;;;;;2.33;0.98;;;;;;;22.76;52.05;101720.66;5033562;28;20042;-59
2022/07/01 08:58:52;;;;;;;1.88;0.57;;;24.60;62.50;;;22.78;51.68;101724.91;5033519;28;20053;-59
2022/07/01 09:01:23;;;;;;;3.40;0.50;;;24.70;76.70;;;22.82;51.53;101730.88;5033344;28;20029;-60
2022/07/01 09:03:52;;;;;;;1.77;0.60;;;24.60;85.50;;;22.83;51.49;101727.03;5033244;28;20088;-59
2022/07/01 09:06:20;;;;;;;3.58;0.60;;;24.20;85.20;;;22.85;51.14;101731.28;5033370;28;20033;-60
2022/07/01 09:08:47;;;;;;;2.10;0.60;;;24.00;53.60;;;22.87;50.81;101737.47;5033564;28;20033;-59
2022/07/01 09:11:14;;;;;;;3.45;0.40;;;24.60;84.80;;;22.90;50.66;101736.16;5033282;28;20056;-60
2022/07/01 09:13:41;;;;;;;1.67;0.63;;;24.70;84.50;;;22.92;50.48;101742.34;5033382;28;20033;-58
2022/07/01 09:16:17;;;;;;;3.00;0.70;;;24.30;84.10;;;22.94;50.07;101745.75;5032060;28;20442;-58
2022/07/01 09:19:03;;;;;;;1.98;0.60;;;24.40;84.40;;;22.98;50.10;101750.66;5033100;28;20112;-60
2022/07/01 09:21:33;;;;;;;3.85;0.57;;;24.50;52.80;;;23.01;50.24;101749.34;5033279;28;20113;-58
2022/07/01 09:24:22;;;;;;;1.30;0.50;;;24.30;84.10;;;23.03;49.95;101742.50;5033196;28;20037;-60
2022/07/01 09:26:59;;;;;;;2.05;0.40;;;24.30;84.00;;;23.05;50.08;101757.00;5032998;28;20522;-60
2022/07/01 09:29:33;;;;;;;4.03;0.60;;;24.70;59.20;;;23.06;49.97;101755.09;5032897;28;20040;-58
2022/07/01 09:32:08;;;;;;;2.28;0.55;;;24.60;83.90;;;23.08;49.69;101747.38;5032887;28;20025;-60
2022/07/01 09:34:40;;;;;;;1.48;0.60;;;24.70;52.50;;;23.10;49.63;101759.94;5032867;28;20052;-59
2022/07/01 09:37:06;;;;;;;2.53;0.80;;;24.70;83.60;;;23.12;49.34;101746.72;5032808;28;20033;-56
2022/07/01 09:39:49;;;;;;;3.10;0.68;;;24.70;83.10;;;23.14;49.27;101740.94;5032936;28;20388;-59
2022/07/01 09:42:20;;;;;;;1.48;0.52;;;24.10;82.60;;;23.17;49.08;101755.22;5032674;28;20504;-58
2022/07/01 09:45:02;;;;;;;3.25;0.60;;;25.00;83.30;;;23.19;48.93;101757.78;5032582;28;20095;-58
2022/07/01 09:47:30;;;;;;;2.13;0.55;;;25.00;82.70;;;23.20;48.80;101760.31;5032692;28;20041;-58
2022/07/01 09:49:56;;;;;;;0.85;0.40;;;24.80;82.70;;;23.21;48.85;101753.72;5031516;28;20381;-59
2022/07/01 09:52:23;;;;;;;2.13;0.82;;;24.80;51.60;;;23.21;48.94;101770.38;5032583;28;20524;-57
2022/07/01 09:54:50;;;;;;;3.45;0.73;;;24.70;67.20;;;23.23;48.48;101775.69;5032809;28;20079;-58
2022/07/01 09:57:17;;;;;;;3.88;0.50;;;25.00;82.60;;;23.25;48.72;101782.72;5032432;28;20112;-58
2022/07/01 09:59:44;;;;;;;3.20;0.60;;;25.00;82.30;;;23.26;48.58;101778.00;5032301;28;20033;-58
2022/07/01 10:02:12;;;;;;;4.50;0.80;;;25.10;82.70;;;23.26;48.39;101778.00;5032498;28;20084;-58
2022/07/01 10:04:45;;;;;;;3.55;0.70;;;24.30;82.40;;;23.26;48.19;101791.91;5031926;28;20461;-58
2022/07/01 10:07:25;;;;;;;1.90;0.50;;;24.80;82.00;;;23.27;47.99;101785.28;5031071;28;20052;-58
2022/07/01 10:10:19;;;;;;;2.92;0.50;;;25.00;61.40;;;23.29;48.12;101787.81;5032441;28;20041;-60
2022/07/01 10:12:54;;;;;;;4.72;0.63;;;25.10;78.10;;;23.29;47.82;101785.91;5031532;28;20048;-60
2022/07/01 10:15:21;;;;;;;4.13;0.80;;;25.10;82.50;;;23.31;47.88;101794.84;5030504;28;20037;-60
2022/07/01 10:17:50;;;;;;;5.43;0.50;;;24.90;50.40;;;23.34;47.47;101801.91;5031973;28;20029;-60
2022/07/01 10:20:19;;;;;;;3.40;0.57;;;25.10;81.30;;;23.35;47.48;101798.88;5032163;28;20034;-60
2022/07/01 10:22:46;;;;;;;1.63;0.57;;;24.20;49.90;;;23.37;47.28;101802.28;5032032;28;20029;-60
2022/07/01 10:25:41;;;;;;;6.20;0.40;;;25.00;81.30;;;23.39;47.09;101810.44;5031975;28;20111;-60
2022/07/01 10:28:26;;;;;;;1.42;0.50;;;24.80;80.90;;;23.40;47.20;101818.53;5032305;28;20080;-60
2022/07/01 10:31:08;;;;;;;2.58;0.47;;;25.10;81.30;;;23.43;47.04;101817.25;5032214;28;20037;-58
2022/07/01 10:33:41;;;;;;;2.28;0.63;;;25.10;81.40;;;23.44;47.08;101818.94;5032085;28;20048;-58